Hoene Spring, Missouri
Current Conditions -  °F | °C
As of 10:54 PM on Sunday 19 Oct 2014 (Local Time) from KSUS Reporting Station
Overcast Overcast  
Wind Chill: 12°   Ceiling: 10000
Heat Index: 12°   Visibility: 10mi
Dew Point:   Wind: 0mph
Humidity: 86%   Direction: NA
Pressure: 30.02"   Gusts: NA
Location:  38.5081°N, 90.6523°W
Report Text: KSUS 200354Z 00000KT 10SM OVC100 12/09 A3002 RMK AO2 SLP167 T01170094
Loading
Personal Weather Stations






























Interactive Weather Map
Tropical Storm Tracking
New forecast layout! Learn more

10-Day Weather Forecast

Advertisements
Track Severe Weather on mobile